Time;durP1;ratioP1;P1;durP2;ratioP2;P2;SDS_P1;SDS_P2;PMS_P1;PMS_P2;Temp;Humidity;BMP_temperature;BMP_pressure;BME280_temperature;BME280_humidity;BME280_pressure;Samples;Min_cycle;Max_cycle;Signal;HPM_P1;HPM_P2
2023/01/18 00:01:17;;;;;;;5.32;3.50;;;;;;;12.18;60.06;96997.06;4248359;33;33358;-84
2023/01/18 00:03:45;;;;;;;5.90;3.55;;;;;;;12.59;59.01;96995.88;4245559;33;34216;-84
2023/01/18 00:06:13;;;;;;;10.25;5.28;;;;;;;13.13;57.00;96983.28;4246236;33;34498;-85
2023/01/18 00:08:41;;;;;;;6.60;3.80;;;;;;;12.20;59.97;96969.38;4244172;33;33008;-84
2023/01/18 00:11:11;;;;;;;6.78;4.22;;;;;;;12.54;58.28;96956.12;4258989;33;34254;-84
2023/01/18 00:13:38;;;;;;;5.45;3.30;;;;;;;12.48;58.72;96961.38;4246357;33;34550;-84
2023/01/18 00:16:32;;;;;;;6.53;4.40;;;;;;;12.18;59.39;96950.34;4259263;33;33567;-84
2023/01/18 00:19:00;;;;;;;5.10;3.05;;;;;;;12.64;57.78;96937.00;4258726;33;34443;-84
2023/01/18 00:21:27;;;;;;;4.20;2.05;;;;;;;13.12;56.50;96928.72;4260201;33;33398;-84
2023/01/18 00:23:55;;;;;;;3.70;1.70;;;;;;;11.88;59.92;96923.75;4259901;33;33797;-84
2023/01/18 00:26:23;;;;;;;2.60;1.23;;;;;;;11.87;59.82;96936.72;4234663;33;33659;-84
2023/01/18 00:28:51;;;;;;;4.07;1.75;;;;;;;12.21;58.69;96960.72;4259728;33;34341;-84
2023/01/18 00:31:20;;;;;;;3.60;1.58;;;;;;;11.47;60.44;96974.06;4258828;33;32907;-83
2023/01/18 00:33:48;;;;;;;3.35;1.70;;;;;;;11.47;60.32;96989.63;4260586;33;34657;-84
2023/01/18 00:36:16;;;;;;;3.33;1.70;;;;;;;11.15;61.26;97013.06;4260445;33;33601;-84
2023/01/18 00:38:50;;;;;;;4.12;1.77;;;;;;;9.65;66.67;97051.69;4261544;33;33803;-84
2023/01/18 00:41:19;;;;;;;4.50;2.05;;;;;;;9.23;69.51;97081.63;4249579;33;33329;-83
2023/01/18 00:43:47;;;;;;;4.75;1.98;;;;;;;9.80;67.81;97097.41;4259714;33;34308;-84
2023/01/18 00:46:20;;;;;;;4.70;2.30;;;;;;;10.04;66.87;97101.84;4260255;33;33870;-84
2023/01/18 00:48:48;;;;;;;5.35;2.37;;;;;;;10.00;66.55;97102.66;4261064;33;33738;-84
2023/01/18 00:51:21;;;;;;;6.12;3.25;;;;;;;12.11;60.17;97091.38;4259100;33;33408;-83
2023/01/18 00:53:49;;;;;;;5.40;3.00;;;;;;;12.22;59.46;97099.97;4261180;33;33712;-83
2023/01/18 00:56:20;;;;;;;6.75;3.10;;;;;;;12.27;59.39;97093.03;4260371;33;34146;-83
2023/01/18 00:58:47;;;;;;;4.62;2.47;;;;;;;12.30;59.25;97086.97;4255887;33;33883;-84
2023/01/18 01:01:16;;;;;;;5.87;2.65;;;;;;;13.10;56.58;97092.44;4259607;33;33635;-83
2023/01/18 01:06:43;;;;;;;6.18;3.35;;;;;;;11.83;60.30;97093.22;4260571;33;33566;-83
2023/01/18 01:09:19;;;;;;;7.45;4.10;;;;;;;11.67;60.86;97082.03;4248850;33;34259;-83
2023/01/18 01:28:28;;;;;;;7.35;4.22;;;;;;;12.09;59.55;97041.22;4259333;33;35323;-83
2023/01/18 01:30:57;;;;;;;6.85;4.00;;;;;;;11.64;61.15;97053.50;4259973;33;33766;-83
2023/01/18 01:33:25;;;;;;;6.72;3.95;;;;;;;11.88;60.67;97050.84;4261327;33;34148;-84
2023/01/18 01:35:57;;;;;;;5.82;2.83;;;;;;;10.60;64.88;97081.28;4259595;33;33937;-83
2023/01/18 01:38:26;;;;;;;6.12;3.95;;;;;;;11.66;62.55;97078.56;4258897;33;32272;-83
2023/01/18 01:41:10;;;;;;;8.60;4.93;;;;;;;11.91;61.32;97079.38;4259813;33;33558;-83
2023/01/18 01:43:47;;;;;;;8.07;4.50;;;;;;;12.22;60.36;97083.56;4246458;33;33513;-84
2023/01/18 01:46:25;;;;;;;7.80;4.87;;;;;;;12.38;60.04;97086.06;4260650;33;33871;-83
2023/01/18 01:49:05;;;;;;;7.55;4.85;;;;;;;13.05;57.99;97083.81;4248153;33;33824;-83
2023/01/18 01:51:36;;;;;;;6.65;4.35;;;;;;;12.76;59.09;97092.72;4260708;33;34033;-83
2023/01/18 01:54:06;;;;;;;9.38;4.97;;;;;;;12.72;59.14;97106.59;4246714;33;33597;-82
2023/01/18 01:56:34;;;;;;;8.13;4.97;;;;;;;12.25;60.55;97109.50;4252161;33;33860;-83
2023/01/18 01:59:02;;;;;;;8.75;5.32;;;;;;;13.16;57.90;97092.38;4259771;33;34718;-83
2023/01/18 02:01:30;;;;;;;8.55;4.65;;;;;;;12.28;60.70;97093.91;4260339;33;35319;-83
2023/01/18 02:03:59;;;;;;;9.82;5.35;;;;;;;11.86;61.65;97090.59;4259728;33;33445;-83
2023/01/18 02:06:33;;;;;;;9.27;5.65;;;;;;;12.34;60.84;97093.84;4232716;33;32273;-83
2023/01/18 02:09:03;;;;;;;11.68;5.70;;;;;;;13.10;58.46;97097.66;4253874;33;33535;-83
2023/01/18 02:11:30;;;;;;;8.43;5.40;;;;;;;12.57;60.58;97102.38;4259910;33;33577;-83
2023/01/18 02:14:02;;;;;;;9.75;5.97;;;;;;;13.26;58.75;97107.91;4257462;33;34201;-83
2023/01/18 02:16:59;;;;;;;9.95;5.85;;;;;;;11.86;62.73;97122.59;4258894;33;33641;-83
2023/01/18 02:19:54;;;;;;;11.05;6.68;;;;;;;10.81;65.83;97143.44;4204081;33;33688;-83
2023/01/18 02:23:00;;;;;;;11.02;6.85;;;;;;;8.28;78.06;97160.75;4235029;33;33632;-83
2023/01/18 02:25:40;;;;;;;13.75;7.40;;;;;;;8.03;80.92;97168.19;4247525;33;31259;-83
2023/01/18 02:28:16;;;;;;;12.13;7.22;;;;;;;6.95;86.86;97157.19;4252869;33;33290;-83
2023/01/18 02:31:02;;;;;;;12.20;7.68;;;;;;;8.19;83.04;97151.22;4259368;33;33850;-84
2023/01/18 02:33:32;;;;;;;13.45;8.40;;;;;;;8.83;79.65;97151.03;4258835;33;33681;-83
2023/01/18 02:36:01;;;;;;;11.40;6.95;;;;;;;10.08;73.38;97143.22;4247282;33;34031;-83
2023/01/18 02:38:35;;;;;;;10.98;7.18;;;;;;;10.49;71.90;97145.09;4259831;33;34589;-83
2023/01/18 02:47:10;;;;;;;10.52;6.50;;;;;;;11.82;65.08;97131.25;4257107;33;33584;-83
2023/01/18 02:49:37;;;;;;;8.35;6.03;;;;;;;10.34;68.36;97145.94;4257587;33;33575;-83
2023/01/18 02:52:06;;;;;;;9.52;5.97;;;;;;;10.84;67.82;97152.09;4258784;33;33969;-83
2023/01/18 02:54:37;;;;;;;11.48;6.22;;;;;;;9.73;70.95;97160.28;4259783;33;33903;-83
2023/01/18 02:57:08;;;;;;;9.60;6.07;;;;;;;8.85;73.82;97166.53;4259999;33;33312;-82
2023/01/18 02:59:40;;;;;;;9.80;5.87;;;;;;;8.73;75.16;97156.97;4247729;33;34328;-83
2023/01/18 03:02:15;;;;;;;8.95;5.47;;;;;;;9.58;73.55;97145.56;4255085;33;33626;-83
2023/01/18 03:04:53;;;;;;;8.55;5.53;;;;;;;10.23;68.34;97133.78;4247440;33;33943;-83
2023/01/18 03:07:30;;;;;;;9.23;5.25;;;;;;;8.17;77.66;97139.12;4260505;33;33355;-83
2023/01/18 03:10:00;;;;;;;10.07;5.70;;;;;;;9.74;72.19;97138.75;4247187;33;34209;-83
2023/01/18 03:12:47;;;;;;;9.52;5.68;;;;;;;9.22;73.07;97148.78;4260703;33;34029;-83
2023/01/18 03:15:48;;;;;;;9.90;5.43;;;;;;;10.68;67.52;97136.53;4260118;33;33867;-83
2023/01/18 03:18:34;;;;;;;9.02;5.03;;;;;;;9.15;72.32;97129.75;4244225;33;33217;-83
2023/01/18 03:21:04;;;;;;;9.35;5.50;;;;;;;9.44;73.36;97131.69;4247714;33;33679;-83
2023/01/18 03:23:36;;;;;;;10.00;5.53;;;;;;;10.40;68.11;97133.88;4251549;33;35862;-83
2023/01/18 03:26:10;;;;;;;8.35;5.12;;;;;;;11.56;64.47;97124.41;4246372;33;33602;-83
2023/01/18 03:34:38;;;;;;;10.45;5.22;;;;;;;11.42;63.88;97115.78;4249770;33;33743;-83
2023/01/18 03:37:30;;;;;;;8.68;5.03;;;;;;;12.19;61.40;97089.63;4260263;33;34108;-83
2023/01/18 03:40:18;;;;;;;9.65;5.85;;;;;;;10.75;65.37;97106.31;4245111;33;32065;-84
2023/01/18 03:42:53;;;;;;;10.77;5.72;;;;;;;9.82;68.87;97100.88;4247078;33;34493;-83
2023/01/18 03:45:31;;;;;;;9.68;5.43;;;;;;;8.87;72.99;97099.44;4246402;33;33804;-83
2023/01/18 03:48:00;;;;;;;10.38;5.80;;;;;;;8.98;73.46;97092.62;4257175;33;33457;-83
2023/01/18 03:50:54;;;;;;;9.98;6.03;;;;;;;9.56;71.56;97093.00;4260193;33;33616;-84
2023/01/18 03:53:31;;;;;;;8.77;5.40;;;;;;;10.79;66.82;97098.53;4247107;33;33737;-84
2023/01/18 03:56:14;;;;;;;10.40;5.15;;;;;;;11.83;63.33;97103.59;4251442;33;34553;-83
2023/01/18 03:58:43;;;;;;;9.52;5.60;;;;;;;12.72;60.18;97101.41;4262041;33;33719;-83
2023/01/18 04:01:11;;;;;;;9.82;5.85;;;;;;;12.59;60.41;97105.84;4258182;33;33188;-83
2023/01/18 04:03:39;;;;;;;10.13;5.97;;;;;;;12.37;60.83;97112.03;4255651;33;34746;-83
2023/01/18 04:06:07;;;;;;;9.02;5.32;;;;;;;11.73;62.57;97131.28;4258428;33;34853;-83
2023/01/18 04:08:35;;;;;;;10.45;5.95;;;;;;;10.81;65.61;97143.44;4258925;33;33787;-83
2023/01/18 04:11:02;;;;;;;10.13;5.82;;;;;;;11.16;65.01;97145.19;4257246;33;34000;-84
2023/01/18 04:13:30;;;;;;;9.88;6.28;;;;;;;11.44;63.94;97145.16;4247683;33;32419;-82
2023/01/18 04:15:57;;;;;;;10.30;5.62;;;;;;;12.25;61.46;97131.12;4260035;33;34410;-83
2023/01/18 04:18:25;;;;;;;12.02;6.28;;;;;;;12.49;60.42;97121.47;4259680;33;33681;-83
2023/01/18 04:20:55;;;;;;;9.45;5.57;;;;;;;13.24;57.99;97120.06;4259623;33;33199;-83
2023/01/18 04:23:23;;;;;;;10.70;5.62;;;;;;;13.77;55.98;97096.16;4259617;33;33702;-83
2023/01/18 04:25:51;;;;;;;11.85;6.37;;;;;;;12.87;58.49;97094.38;4259845;33;33886;-83
2023/01/18 04:28:25;;;;;;;12.18;6.45;;;;;;;11.71;61.86;97114.88;4259822;33;34693;-83
2023/01/18 04:30:54;;;;;;;10.48;6.80;;;;;;;12.27;60.64;97108.62;4259805;33;33214;-82
2023/01/18 04:33:22;;;;;;;13.65;6.78;;;;;;;11.90;61.04;97116.56;4252010;33;33506;-83
2023/01/18 04:35:53;;;;;;;12.60;6.93;;;;;;;10.60;66.04;97148.56;4258787;33;34710;-82
2023/01/18 04:38:21;;;;;;;12.63;8.00;;;;;;;9.96;69.42;97155.22;4246449;33;31961;-82
2023/01/18 04:40:49;;;;;;;11.65;7.18;;;;;;;10.22;68.38;97157.09;4259547;33;34011;-82
2023/01/18 04:43:16;;;;;;;13.52;6.90;;;;;;;9.89;69.67;97173.28;4246009;33;33542;-82
2023/01/18 04:45:54;;;;;;;12.45;6.87;;;;;;;10.14;68.98;97174.28;4256900;33;33945;-83
2023/01/18 04:48:22;;;;;;;11.75;6.93;;;;;;;12.00;62.81;97162.34;4256871;33;34206;-83
2023/01/18 04:50:51;;;;;;;11.85;7.00;;;;;;;13.01;59.06;97148.84;4258689;33;34127;-83
2023/01/18 04:53:20;;;;;;;13.45;7.72;;;;;;;12.53;60.34;97162.12;4259700;33;34089;-83
2023/01/18 04:55:48;;;;;;;13.85;8.25;;;;;;;11.00;65.29;97169.34;4245142;33;33778;-83
2023/01/18 04:58:16;;;;;;;14.32;7.75;;;;;;;10.32;67.89;97183.88;4246766;33;33740;-83
2023/01/18 05:00:43;;;;;;;12.68;7.87;;;;;;;10.32;68.04;97184.75;4257756;33;33442;-82
2023/01/18 05:03:11;;;;;;;15.82;8.32;;;;;;;9.71;70.68;97194.75;4245193;33;34135;-83
2023/01/18 05:05:39;;;;;;;16.98;8.25;;;;;;;8.73;75.31;97206.00;4258735;33;34171;-82
2023/01/18 05:08:07;;;;;;;12.32;6.85;;;;;;;8.56;76.23;97213.56;4258915;33;33325;-82
2023/01/18 05:10:34;;;;;;;11.82;6.53;;;;;;;7.84;79.62;97225.50;4259467;33;32857;-82
2023/01/18 05:13:02;;;;;;;9.20;4.32;;;;;;;7.88;80.04;97243.63;4258124;33;33955;-82
2023/01/18 05:15:30;;;;;;;9.98;4.18;;;;;;;7.45;82.61;97252.41;4259189;33;34040;-83
2023/01/18 05:17:57;;;;;;;7.70;3.90;;;;;;;7.65;82.06;97255.31;4259438;33;34161;-82
2023/01/18 05:20:25;;;;;;;4.55;2.53;;;;;;;7.83;80.20;97252.13;4261212;33;33787;-82
2023/01/18 05:22:52;;;;;;;6.10;3.40;;;;;;;7.51;82.26;97254.22;4261067;33;34499;-82
2023/01/18 05:25:20;;;;;;;7.15;3.30;;;;;;;8.06;79.14;97248.16;4261345;33;34889;-83
2023/01/18 05:27:47;;;;;;;8.40;3.33;;;;;;;7.48;81.11;97252.47;4247548;33;32272;-83
2023/01/18 05:30:16;;;;;;;6.15;2.90;;;;;;;6.93;83.79;97266.97;4258394;33;34146;-83
2023/01/18 05:32:43;;;;;;;6.35;3.10;;;;;;;7.31;84.57;97259.06;4258941;33;33541;-82
2023/01/18 05:35:12;;;;;;;12.07;4.30;;;;;;;6.47;87.41;97256.66;4260892;33;34020;-83
2023/01/18 05:37:40;;;;;;;5.70;2.85;;;;;;;5.96;89.89;97258.16;4260370;33;33784;-82
2023/01/18 05:40:08;;;;;;;4.32;2.10;;;;;;;6.34;87.41;97250.41;4260804;33;33141;-83
2023/01/18 05:42:36;;;;;;;4.28;2.08;;;;;;;5.12;91.94;97249.34;4261123;33;34642;-83
2023/01/18 05:45:04;;;;;;;4.32;2.37;;;;;;;5.06;93.93;97246.59;4260905;33;33684;-83
2023/01/18 05:47:31;;;;;;;2.85;1.27;;;;;;;5.35;92.52;97236.19;4260811;33;33684;-83
2023/01/18 05:49:59;;;;;;;3.95;1.75;;;;;;;6.69;86.77;97234.81;4260678;33;33121;-83
2023/01/18 05:52:26;;;;;;;4.65;2.03;;;;;;;6.45;85.28;97200.06;4261080;33;34509;-82
2023/01/18 05:54:54;;;;;;;2.85;1.17;;;;;;;8.41;74.37;97180.72;4254656;33;33858;-82
2023/01/18 05:57:22;;;;;;;2.92;1.40;;;;;;;6.58;78.54;97200.28;4256953;33;33549;-82
2023/01/18 05:59:49;;;;;;;5.47;1.45;;;;;;;4.89;88.49;97218.84;4258895;33;34105;-82
2023/01/18 06:02:17;;;;;;;3.67;1.40;;;;;;;6.97;81.94;97204.41;4259093;33;33227;-81
2023/01/18 06:04:46;;;;;;;2.50;1.40;;;;;;;8.95;71.04;97198.47;4259268;33;34787;-83
2023/01/18 06:07:13;;;;;;;4.53;1.67;;;;;;;9.81;66.52;97196.53;4258356;33;33554;-83
2023/01/18 06:09:41;;;;;;;4.72;1.62;;;;;;;10.06;64.39;97204.41;4259166;33;33094;-82
2023/01/18 06:12:10;;;;;;;4.20;1.37;;;;;;;6.95;77.37;97209.53;4245999;33;34698;-83
2023/01/18 06:14:37;;;;;;;2.47;1.30;;;;;;;6.09;81.25;97238.75;4259245;33;34132;-82
2023/01/18 06:17:07;;;;;;;3.97;1.70;;;;;;;5.85;84.36;97251.88;4260256;33;34582;-82
2023/01/18 06:19:35;;;;;;;4.32;1.52;;;;;;;4.85;88.46;97250.37;4259645;33;32499;-82
2023/01/18 06:22:03;;;;;;;3.17;1.52;;;;;;;6.57;83.88;97247.44;4253715;33;33851;-82
2023/01/18 06:24:31;;;;;;;5.15;1.80;;;;;;;6.48;82.39;97254.09;4248926;33;33523;-82
2023/01/18 06:26:59;;;;;;;4.93;1.87;;;;;;;7.10;78.41;97242.37;4247320;33;32227;-82
2023/01/18 06:29:26;;;;;;;4.78;1.65;;;;;;;9.54;67.57;97229.09;4248763;33;33349;-83
2023/01/18 06:31:54;;;;;;;4.37;2.00;;;;;;;10.30;65.10;97217.50;4260748;33;34585;-82
2023/01/18 06:34:22;;;;;;;3.40;1.60;;;;;;;11.46;60.27;97197.88;4261269;33;33752;-82
2023/01/18 06:36:49;;;;;;;3.60;1.48;;;;;;;12.43;55.78;97166.50;4259099;33;33854;-85
2023/01/18 06:39:17;;;;;;;4.35;1.30;;;;;;;11.09;59.88;97150.37;4259478;33;33225;-84
2023/01/18 06:41:45;;;;;;;4.60;1.80;;;;;;;11.83;56.31;97184.84;4247955;33;33506;-85
2023/01/18 06:44:12;;;;;;;6.55;2.47;;;;;;;9.22;65.12;97196.13;4254515;33;34554;-84
2023/01/18 06:46:42;;;;;;;5.45;2.12;;;;;;;7.24;73.42;97233.22;4259760;33;33682;-82
2023/01/18 06:49:10;;;;;;;4.03;1.75;;;;;;;6.63;77.31;97253.56;4260590;33;32923;-83
2023/01/18 06:51:38;;;;;;;7.28;1.77;;;;;;;6.43;78.69;97265.13;4259778;33;34264;-82
2023/01/18 06:54:06;;;;;;;7.15;2.80;;;;;;;5.26;85.02;97293.31;4260578;33;33955;-83
2023/01/18 06:56:34;;;;;;;5.70;2.35;;;;;;;4.86;86.13;97293.13;4259947;33;34120;-83
2023/01/18 06:59:02;;;;;;;4.40;1.92;;;;;;;4.81;86.79;97283.56;4247983;33;33823;-82
2023/01/18 07:01:29;;;;;;;5.00;2.03;;;;;;;4.67;88.69;97316.53;4261489;33;33483;-83
2023/01/18 07:03:57;;;;;;;5.93;2.53;;;;;;;4.09;91.86;97337.06;4260820;33;34447;-84
2023/01/18 07:06:25;;;;;;;7.80;3.92;;;;;;;3.86;92.96;97353.41;4259854;33;34606;-84
2023/01/18 07:08:52;;;;;;;9.05;4.12;;;;;;;4.82;90.30;97337.47;4259488;33;33350;-84
2023/01/18 07:11:20;;;;;;;6.78;3.33;;;;;;;5.21;86.15;97316.28;4260032;33;34385;-82
2023/01/18 07:13:52;;;;;;;9.98;3.95;;;;;;;4.90;87.05;97325.72;4258345;33;33546;-84
2023/01/18 07:16:20;;;;;;;7.12;3.78;;;;;;;5.11;86.15;97328.00;4246895;33;33669;-83
2023/01/18 07:18:49;;;;;;;8.88;3.92;;;;;;;4.24;90.19;97346.91;4246588;33;34027;-83
2023/01/18 07:21:18;;;;;;;10.05;4.55;;;;;;;4.43;88.19;97363.72;4258658;33;33822;-84
2023/01/18 07:23:47;;;;;;;9.02;5.37;;;;;;;4.03;90.55;97367.62;4246455;33;34128;-83
2023/01/18 07:26:15;;;;;;;8.80;5.10;;;;;;;3.67;90.96;97383.56;4260316;33;33599;-82
2023/01/18 07:28:45;;;;;;;8.10;4.05;;;;;;;4.20;89.59;97398.03;4260158;33;32799;-83
2023/01/18 07:31:15;;;;;;;9.15;4.25;;;;;;;4.57;86.11;97400.00;4247348;33;33841;-84
2023/01/18 07:33:42;;;;;;;9.15;4.43;;;;;;;4.17;88.14;97398.78;4247447;33;33992;-83
2023/01/18 07:36:11;;;;;;;7.95;3.60;;;;;;;5.03;84.72;97390.22;4260740;33;34698;-81
2023/01/18 07:38:39;;;;;;;8.02;3.62;;;;;;;5.65;82.18;97380.72;4247651;33;34080;-84
2023/01/18 07:41:15;;;;;;;15.30;5.53;;;;;;;6.86;77.60;97377.50;4260300;33;35236;-82
2023/01/18 07:43:44;;;;;;;9.98;5.57;;;;;;;6.45;76.71;97369.78;4259098;33;33940;-84
2023/01/18 07:46:19;;;;;;;4.97;2.55;;;;;;;4.93;85.29;97392.50;4260719;33;34322;-81
2023/01/18 07:48:47;;;;;;;3.87;1.73;;;;;;;4.68;85.47;97396.06;4247325;33;33642;-82
2023/01/18 07:51:15;;;;;;;6.75;2.45;;;;;;;4.61;85.81;97418.94;4256278;33;34510;-84
2023/01/18 07:53:43;;;;;;;6.12;2.62;;;;;;;4.66;85.91;97427.63;4246541;33;33730;-82
2023/01/18 07:56:14;;;;;;;8.63;2.70;;;;;;;5.39;83.65;97443.34;4259866;33;33834;-85
2023/01/18 07:58:42;;;;;;;5.53;2.17;;;;;;;5.97;80.70;97447.50;4260305;33;32622;-83
2023/01/18 08:01:12;;;;;;;7.03;2.30;;;;;;;6.87;76.82;97442.69;4259928;33;33946;-82
2023/01/18 08:03:42;;;;;;;3.58;1.60;;;;;;;7.61;73.79;97449.31;4259446;33;33858;-82
2023/01/18 08:06:15;;;;;;;14.15;6.80;;;;;;;7.79;72.43;97456.53;4260199;33;33843;-82
2023/01/18 08:08:44;;;;;;;12.00;5.35;;;;;;;8.95;68.50;97464.41;4258582;33;34114;-84
2023/01/18 08:11:12;;;;;;;15.73;8.68;;;;;;;10.34;62.37;97467.66;4259417;33;33848;-84
2023/01/18 08:13:40;;;;;;;8.90;3.87;;;;;;;11.83;56.75;97464.97;4259577;33;34576;-82
2023/01/18 08:16:10;;;;;;;7.25;4.47;;;;;;;10.03;62.08;97472.53;4259733;33;33781;-85
2023/01/18 08:18:39;;;;;;;3.20;1.52;;;;;;;11.74;56.91;97464.94;4266652;33;32333;-84
2023/01/18 08:21:11;;;;;;;2.95;1.40;;;;;;;11.51;57.71;97486.50;4246742;33;34853;-83
2023/01/18 08:23:39;;;;;;;3.22;1.30;;;;;;;6.01;77.75;97507.56;4257815;33;33686;-83
2023/01/18 08:26:08;;;;;;;2.58;0.80;;;;;;;6.27;79.34;97521.06;4259427;33;33935;-84
2023/01/18 08:28:35;;;;;;;2.45;0.90;;;;;;;5.83;81.61;97523.31;4258979;33;34253;-83
2023/01/18 08:31:15;;;;;;;1.67;0.70;;;;;;;5.54;84.33;97514.81;4259307;33;34650;-82
2023/01/18 08:33:46;;;;;;;2.12;0.82;;;;;;;5.62;82.40;97521.91;4259285;33;34148;-83
2023/01/18 08:36:16;;;;;;;1.58;0.77;;;;;;;5.67;81.37;97517.75;4259827;33;34355;-82
2023/01/18 08:38:55;;;;;;;2.70;0.88;;;;;;;6.37;81.33;97499.88;4259267;33;33413;-81
2023/01/18 08:41:27;;;;;;;2.03;0.95;;;;;;;7.37;76.82;97507.25;4258685;33;34385;-83
2023/01/18 08:43:56;;;;;;;1.40;0.57;;;;;;;5.80;80.92;97523.25;4257923;33;33859;-82
2023/01/18 08:46:27;;;;;;;2.50;1.02;;;;;;;5.89;83.33;97526.03;4258285;33;33974;-83
2023/01/18 08:48:56;;;;;;;7.32;2.90;;;;;;;7.07;76.51;97517.78;4239809;33;33911;-84
2023/01/18 08:51:24;;;;;;;2.33;1.25;;;;;;;8.84;71.87;97523.63;4259988;33;34501;-83
2023/01/18 08:53:56;;;;;;;3.37;0.82;;;;;;;7.79;75.54;97541.56;4259471;33;34766;-84
2023/01/18 08:56:24;;;;;;;3.80;0.88;;;;;;;7.45;76.07;97546.03;4260729;33;33767;-83
2023/01/18 08:58:53;;;;;;;3.80;0.95;;;;;;;8.62;71.93;97558.56;4260523;33;34245;-84
2023/01/18 09:01:22;;;;;;;2.83;0.77;;;;;;;7.37;74.00;97563.03;4261275;33;34358;-83
2023/01/18 09:03:53;;;;;;;2.67;0.85;;;;;;;7.68;74.04;97570.56;4261801;33;33697;-84
2023/01/18 09:06:21;;;;;;;2.10;0.80;;;;;;;8.89;71.30;97567.59;4240992;33;34424;-84
2023/01/18 09:08:49;;;;;;;2.08;0.70;;;;;;;10.59;62.19;97572.25;4259509;33;32395;-83
2023/01/18 09:11:17;;;;;;;1.37;0.52;;;;;;;9.47;65.04;97588.22;4260719;33;33599;-83
2023/01/18 09:13:45;;;;;;;0.95;0.50;;;;;;;7.15;75.35;97613.22;4255363;33;34696;-82
2023/01/18 09:16:28;;;;;;;1.90;0.70;;;;;;;9.27;68.75;97621.50;4246688;33;32619;-82
2023/01/18 09:18:57;;;;;;;1.67;0.70;;;;;;;7.54;74.46;97648.41;4246270;33;33643;-83
2023/01/18 09:21:33;;;;;;;2.30;0.75;;;;;;;7.39;77.35;97654.09;4246950;33;34482;-81
2023/01/18 09:24:18;;;;;;;1.25;0.70;;;;;;;5.84;83.25;97674.06;4259105;33;34185;-81
2023/01/18 09:26:49;;;;;;;2.30;0.95;;;;;;;6.03;82.37;97685.78;4248536;33;34317;-82
2023/01/18 09:29:18;;;;;;;2.80;0.80;;;;;;;6.13;83.45;97694.63;4248049;33;33678;-82
2023/01/18 09:31:47;;;;;;;2.42;0.77;;;;;;;6.08;83.60;97699.63;4248027;33;33415;-82
2023/01/18 09:34:17;;;;;;;2.10;0.95;;;;;;;6.74;83.03;97703.12;4259646;33;34462;-83
2023/01/18 09:36:50;;;;;;;2.10;0.73;;;;;;;6.09;83.76;97706.53;4260453;33;33947;-81
2023/01/18 09:39:19;;;;;;;2.42;0.90;;;;;;;7.57;79.56;97706.03;4235450;33;32494;-84
2023/01/18 09:41:53;;;;;;;2.42;1.10;;;;;;;6.49;83.69;97705.06;4235118;33;34119;-81
2023/01/18 09:44:28;;;;;;;2.28;1.05;;;;;;;5.53;87.38;97696.28;4255974;33;33967;-81
2023/01/18 09:47:00;;;;;;;3.65;1.45;;;;;;;5.60;87.91;97723.91;4232616;33;33624;-80
2023/01/18 09:49:40;;;;;;;3.80;2.03;;;;;;;5.58;88.45;97733.25;4247181;33;33221;-81
2023/01/18 09:52:19;;;;;;;4.93;1.85;;;;;;;5.63;88.46;97723.97;4258076;33;33812;-83
2023/01/18 09:54:59;;;;;;;5.15;2.10;;;;;;;5.63;87.47;97725.69;4257980;33;34359;-82
2023/01/18 09:57:33;;;;;;;5.22;2.35;;;;;;;6.08;88.01;97725.31;4258434;33;33576;-81
2023/01/18 10:00:03;;;;;;;5.80;2.70;;;;;;;5.96;87.09;97730.97;4248416;33;32847;-81
2023/01/18 10:02:37;;;;;;;7.32;3.03;;;;;;;6.66;84.62;97726.06;4258331;33;33505;-82
2023/01/18 10:05:12;;;;;;;5.43;2.72;;;;;;;6.25;86.01;97723.25;4245225;33;34215;-82
2023/01/18 10:07:47;;;;;;;7.03;3.03;;;;;;;6.17;86.75;97729.87;4233071;33;32841;-82
2023/01/18 10:10:17;;;;;;;8.52;3.17;;;;;;;6.12;86.54;97741.72;4244860;33;33430;-82
2023/01/18 10:12:50;;;;;;;6.22;2.85;;;;;;;5.99;86.50;97743.94;4245221;33;34252;-81
2023/01/18 10:15:27;;;;;;;5.72;2.60;;;;;;;5.84;88.19;97752.00;4246414;33;33697;-83
2023/01/18 10:17:57;;;;;;;5.35;2.72;;;;;;;7.24;83.28;97758.50;4244920;33;34155;-82
2023/01/18 10:20:32;;;;;;;6.28;2.83;;;;;;;6.12;85.42;97777.69;4245695;33;32596;-82
2023/01/18 10:23:00;;;;;;;;;;;;;;;5.86;87.66;97790.59;4245115;33;33887;-81
2023/01/18 10:25:32;;;;;;;5.18;2.37;;;;;;;6.24;87.24;97783.22;4245310;33;34003;-83
2023/01/18 10:28:39;;;;;;;4.28;1.87;;;;;;;6.02;86.25;97771.41;4243540;33;33635;-81
2023/01/18 10:31:34;;;;;;;3.75;1.77;;;;;;;6.09;85.94;97766.50;4221344;33;33196;-80
2023/01/18 10:34:09;;;;;;;5.30;2.15;;;;;;;7.72;80.21;97771.62;4231378;33;33163;-80
2023/01/18 10:36:42;;;;;;;3.17;1.50;;;;;;;8.50;76.81;97765.66;4226883;33;33899;-80
2023/01/18 10:39:29;;;;;;;4.07;1.45;;;;;;;7.06;79.53;97783.75;4243173;33;34559;-80
2023/01/18 10:41:59;;;;;;;3.70;1.52;;;;;;;6.55;82.70;97791.78;4244369;33;33209;-81
2023/01/18 10:44:28;;;;;;;4.53;1.50;;;;;;;6.82;81.32;97815.72;4254309;33;34968;-81
2023/01/18 10:47:00;;;;;;;3.65;1.60;;;;;;;6.85;80.60;97805.50;4244019;33;33882;-80
2023/01/18 10:49:36;;;;;;;3.83;1.58;;;;;;;7.21;79.90;97814.19;4232885;33;32357;-80
2023/01/18 10:52:26;;;;;;;4.68;1.90;;;;;;;7.03;79.01;97819.69;4244171;33;33426;-81
2023/01/18 10:54:55;;;;;;;4.35;1.90;;;;;;;7.05;80.84;97838.63;4231775;33;31564;-81
2023/01/18 10:57:33;;;;;;;3.35;1.40;;;;;;;8.25;76.22;97849.34;4244616;33;32836;-81
2023/01/18 11:00:11;;;;;;;3.97;1.83;;;;;;;7.44;78.03;97859.44;4243973;33;33836;-81
2023/01/18 11:02:41;;;;;;;4.37;1.90;;;;;;;7.23;78.16;97858.87;4244053;33;33189;-81
2023/01/18 11:05:36;;;;;;;4.18;2.15;;;;;;;7.35;77.77;97863.47;4246704;33;33631;-81
2023/01/18 11:08:24;;;;;;;4.53;1.93;;;;;;;7.20;78.26;97853.63;4240789;33;34527;-80
2023/01/18 11:11:04;;;;;;;3.50;1.83;;;;;;;7.89;76.54;97860.53;4240242;33;32340;-82
2023/01/18 11:13:41;;;;;;;4.35;1.83;;;;;;;7.59;76.26;97858.97;4245342;33;33154;-81
2023/01/18 11:16:12;;;;;;;5.62;2.20;;;;;;;7.34;77.80;97866.87;4236677;33;33935;-83
2023/01/18 11:18:56;;;;;;;4.37;1.62;;;;;;;7.28;78.58;97885.59;4231648;33;33584;-80
2023/01/18 11:21:29;;;;;;;4.37;1.75;;;;;;;7.53;77.69;97888.84;4244767;33;33443;-82
2023/01/18 11:23:57;;;;;;;4.07;1.62;;;;;;;7.63;78.30;97890.81;4241910;33;33538;-81
2023/01/18 11:26:27;;;;;;;3.92;1.45;;;;;;;8.71;74.89;97883.94;4245323;33;34458;-82
2023/01/18 11:28:59;;;;;;;3.78;1.70;;;;;;;7.44;77.18;97899.78;4255469;33;33822;-81
2023/01/18 11:31:30;;;;;;;4.78;2.37;;;;;;;7.72;75.98;97895.34;4251720;33;33523;-81
2023/01/18 11:34:00;;;;;;;4.03;2.20;;;;;;;7.87;76.22;97900.88;4243718;33;33301;-82
2023/01/18 11:36:41;;;;;;;3.90;1.95;;;;;;;7.76;75.16;97903.16;4255423;33;33384;-81
2023/01/18 11:39:27;;;;;;;5.32;1.80;;;;;;;7.76;73.94;97908.31;4243323;33;33663;-81
2023/01/18 11:42:25;;;;;;;3.53;1.40;;;;;;;8.00;72.72;97923.56;4243906;33;32311;-81
2023/01/18 11:45:28;;;;;;;4.15;2.03;;;;;;;8.31;72.70;97913.97;4240134;33;33166;-81
2023/01/18 11:48:28;;;;;;;2.97;1.45;;;;;;;7.78;74.06;97921.25;4243613;33;33878;-80
2023/01/18 11:51:00;;;;;;;3.22;1.50;;;;;;;7.81;74.12;97942.84;4250379;33;33569;-81
2023/01/18 11:53:59;;;;;;;4.72;1.83;;;;;;;8.05;73.64;97946.84;4241496;33;34294;-80
2023/01/18 11:56:40;;;;;;;3.53;1.67;;;;;;;7.95;71.73;97947.47;4239480;33;34050;-79
2023/01/18 11:59:13;;;;;;;3.67;1.55;;;;;;;7.61;72.21;97947.47;4242797;33;34693;-80
2023/01/18 12:01:55;;;;;;;5.05;1.50;;;;;;;7.62;72.42;97946.62;4243748;33;33380;-81
2023/01/18 12:04:32;;;;;;;3.28;1.12;;;;;;;7.80;72.82;97955.66;4241114;33;32876;-82
2023/01/18 12:07:23;;;;;;;3.92;1.50;;;;;;;8.51;71.66;97965.19;4243932;33;33207;-81
2023/01/18 12:09:53;;;;;;;4.30;1.60;;;;;;;8.56;70.78;97976.50;4241701;33;34562;-76
2023/01/18 12:12:33;;;;;;;2.35;0.93;;;;;;;8.12;71.00;97973.69;4254871;33;33655;-80
2023/01/18 12:15:17;;;;;;;2.33;1.12;;;;;;;8.04;73.04;97970.91;4243794;33;33376;-80
2023/01/18 12:17:48;;;;;;;3.80;1.30;;;;;;;7.85;71.60;97979.88;4243724;33;33552;-80
2023/01/18 12:20:22;;;;;;;3.47;1.23;;;;;;;8.20;72.36;97983.34;4244864;33;32652;-81
2023/01/18 12:23:00;;;;;;;3.70;1.30;;;;;;;8.34;71.67;97990.56;4243540;33;34671;-80
2023/01/18 12:25:51;;;;;;;3.12;1.27;;;;;;;8.44;69.16;97990.84;4249860;33;35356;-82
2023/01/18 12:29:01;;;;;;;3.95;1.62;;;;;;;8.53;68.40;98002.22;4252148;33;34104;-81
2023/01/18 12:31:32;;;;;;;3.97;1.58;;;;;;;8.96;68.64;98003.19;4243639;33;34702;-82
2023/01/18 12:34:11;;;;;;;3.62;1.60;;;;;;;9.50;68.13;97997.44;4243636;33;34612;-81